sensor_id;sensor_type;location;lat;lon;timestamp;P1;durP1;ratioP1;P2;durP2;ratioP2
72408;SDS011;60402;48.082;11.628;2023-06-04T00:01:24;9.80;;;4.07;;
72408;SDS011;60402;48.082;11.628;2023-06-04T00:04:10;8.40;;;3.80;;
72408;SDS011;60402;48.082;11.628;2023-06-04T00:06:56;10.70;;;4.20;;
72408;SDS011;60402;48.082;11.628;2023-06-04T00:09:41;7.78;;;3.67;;
72408;SDS011;60402;48.082;11.628;2023-06-04T00:12:27;7.75;;;3.53;;
72408;SDS011;60402;48.082;11.628;2023-06-04T00:15:13;10.20;;;4.43;;
72408;SDS011;60402;48.082;11.628;2023-06-04T00:18:01;7.43;;;3.60;;
72408;SDS011;60402;48.082;11.628;2023-06-04T00:20:47;7.93;;;4.10;;
72408;SDS011;60402;48.082;11.628;2023-06-04T00:23:32;8.30;;;4.25;;
72408;SDS011;60402;48.082;11.628;2023-06-04T00:26:18;8.98;;;3.80;;
72408;SDS011;60402;48.082;11.628;2023-06-04T00:29:04;7.55;;;4.13;;
72408;SDS011;60402;48.082;11.628;2023-06-04T00:31:50;9.30;;;4.22;;
72408;SDS011;60402;48.082;11.628;2023-06-04T00:34:35;8.40;;;3.83;;
72408;SDS011;60402;48.082;11.628;2023-06-04T00:37:21;8.35;;;3.45;;
72408;SDS011;60402;48.082;11.628;2023-06-04T00:40:07;6.50;;;3.25;;
72408;SDS011;60402;48.082;11.628;2023-06-04T00:42:53;6.93;;;3.53;;
72408;SDS011;60402;48.082;11.628;2023-06-04T00:45:40;8.00;;;3.60;;
72408;SDS011;60402;48.082;11.628;2023-06-04T00:48:27;6.65;;;3.70;;
72408;SDS011;60402;48.082;11.628;2023-06-04T00:51:13;9.35;;;3.90;;
72408;SDS011;60402;48.082;11.628;2023-06-04T00:53:58;8.07;;;3.70;;
72408;SDS011;60402;48.082;11.628;2023-06-04T00:59:33;9.52;;;4.13;;
72408;SDS011;60402;48.082;11.628;2023-06-04T01:02:21;7.72;;;3.40;;
72408;SDS011;60402;48.082;11.628;2023-06-04T01:05:16;8.73;;;3.67;;
72408;SDS011;60402;48.082;11.628;2023-06-04T01:08:11;7.60;;;4.10;;
72408;SDS011;60402;48.082;11.628;2023-06-04T01:10:57;7.88;;;3.97;;
72408;SDS011;60402;48.082;11.628;2023-06-04T01:13:43;9.90;;;4.18;;
72408;SDS011;60402;48.082;11.628;2023-06-04T01:23:14;9.82;;;4.45;;
72408;SDS011;60402;48.082;11.628;2023-06-04T01:26:21;9.00;;;3.75;;
72408;SDS011;60402;48.082;11.628;2023-06-04T01:29:07;9.02;;;4.07;;
72408;SDS011;60402;48.082;11.628;2023-06-04T01:31:52;8.68;;;4.13;;
72408;SDS011;60402;48.082;11.628;2023-06-04T01:34:45;9.55;;;4.22;;
72408;SDS011;60402;48.082;11.628;2023-06-04T01:37:31;10.13;;;3.97;;
72408;SDS011;60402;48.082;11.628;2023-06-04T01:40:17;8.40;;;4.03;;
72408;SDS011;60402;48.082;11.628;2023-06-04T01:43:03;7.47;;;3.67;;
72408;SDS011;60402;48.082;11.628;2023-06-04T01:45:49;8.25;;;4.25;;
72408;SDS011;60402;48.082;11.628;2023-06-04T01:48:35;7.60;;;3.75;;
72408;SDS011;60402;48.082;11.628;2023-06-04T01:51:21;10.45;;;4.32;;
72408;SDS011;60402;48.082;11.628;2023-06-04T01:54:07;8.57;;;4.05;;
72408;SDS011;60402;48.082;11.628;2023-06-04T01:56:52;8.25;;;3.97;;
72408;SDS011;60402;48.082;11.628;2023-06-04T01:59:38;9.43;;;3.92;;
72408;SDS011;60402;48.082;11.628;2023-06-04T02:02:24;7.50;;;3.83;;
72408;SDS011;60402;48.082;11.628;2023-06-04T02:05:10;10.15;;;4.13;;
72408;SDS011;60402;48.082;11.628;2023-06-04T02:07:56;9.07;;;3.72;;
72408;SDS011;60402;48.082;11.628;2023-06-04T02:10:42;8.65;;;3.55;;
72408;SDS011;60402;48.082;11.628;2023-06-04T02:13:28;7.70;;;3.83;;
72408;SDS011;60402;48.082;11.628;2023-06-04T02:16:14;8.32;;;4.03;;
72408;SDS011;60402;48.082;11.628;2023-06-04T02:18:59;10.93;;;4.32;;
72408;SDS011;60402;48.082;11.628;2023-06-04T02:21:46;8.05;;;3.60;;
72408;SDS011;60402;48.082;11.628;2023-06-04T02:24:32;7.68;;;3.60;;
72408;SDS011;60402;48.082;11.628;2023-06-04T02:27:17;10.35;;;3.90;;
72408;SDS011;60402;48.082;11.628;2023-06-04T02:30:03;9.75;;;4.18;;
72408;SDS011;60402;48.082;11.628;2023-06-04T02:32:51;8.93;;;3.90;;
72408;SDS011;60402;48.082;11.628;2023-06-04T02:35:37;9.25;;;4.38;;
72408;SDS011;60402;48.082;11.628;2023-06-04T02:38:22;11.10;;;4.28;;
72408;SDS011;60402;48.082;11.628;2023-06-04T02:41:08;7.28;;;4.07;;
72408;SDS011;60402;48.082;11.628;2023-06-04T02:43:54;8.65;;;4.22;;
72408;SDS011;60402;48.082;11.628;2023-06-04T02:46:39;10.98;;;4.10;;
72408;SDS011;60402;48.082;11.628;2023-06-04T02:49:25;8.35;;;4.38;;
72408;SDS011;60402;48.082;11.628;2023-06-04T02:52:11;8.07;;;4.20;;
72408;SDS011;60402;48.082;11.628;2023-06-04T02:54:56;8.40;;;4.10;;
72408;SDS011;60402;48.082;11.628;2023-06-04T02:57:42;8.60;;;4.35;;
72408;SDS011;60402;48.082;11.628;2023-06-04T03:00:28;9.23;;;4.53;;
72408;SDS011;60402;48.082;11.628;2023-06-04T03:03:14;7.93;;;3.88;;
72408;SDS011;60402;48.082;11.628;2023-06-04T03:06:00;9.52;;;4.22;;
72408;SDS011;60402;48.082;11.628;2023-06-04T03:08:48;10.45;;;4.20;;
72408;SDS011;60402;48.082;11.628;2023-06-04T03:11:35;8.82;;;4.40;;
72408;SDS011;60402;48.082;11.628;2023-06-04T03:14:20;8.98;;;3.90;;
72408;SDS011;60402;48.082;11.628;2023-06-04T03:17:06;8.55;;;3.90;;
72408;SDS011;60402;48.082;11.628;2023-06-04T03:19:55;7.82;;;4.40;;
72408;SDS011;60402;48.082;11.628;2023-06-04T03:22:41;8.93;;;4.30;;
72408;SDS011;60402;48.082;11.628;2023-06-04T03:25:27;8.52;;;4.07;;
72408;SDS011;60402;48.082;11.628;2023-06-04T03:28:12;12.38;;;4.32;;
72408;SDS011;60402;48.082;11.628;2023-06-04T03:30:58;9.07;;;4.22;;
72408;SDS011;60402;48.082;11.628;2023-06-04T03:33:45;7.93;;;4.10;;
72408;SDS011;60402;48.082;11.628;2023-06-04T03:36:30;7.57;;;3.58;;
72408;SDS011;60402;48.082;11.628;2023-06-04T03:39:23;9.80;;;4.30;;
72408;SDS011;60402;48.082;11.628;2023-06-04T03:42:09;8.52;;;4.22;;
72408;SDS011;60402;48.082;11.628;2023-06-04T03:44:55;8.75;;;3.97;;
72408;SDS011;60402;48.082;11.628;2023-06-04T03:47:43;8.35;;;4.00;;
72408;SDS011;60402;48.082;11.628;2023-06-04T03:50:29;9.23;;;4.15;;
72408;SDS011;60402;48.082;11.628;2023-06-04T03:53:15;9.52;;;4.35;;
72408;SDS011;60402;48.082;11.628;2023-06-04T03:56:00;9.93;;;4.20;;
72408;SDS011;60402;48.082;11.628;2023-06-04T03:58:46;8.80;;;4.10;;
72408;SDS011;60402;48.082;11.628;2023-06-04T04:01:32;8.90;;;4.18;;
72408;SDS011;60402;48.082;11.628;2023-06-04T04:04:18;9.25;;;4.15;;
72408;SDS011;60402;48.082;11.628;2023-06-04T04:07:04;7.35;;;3.63;;
72408;SDS011;60402;48.082;11.628;2023-06-04T04:09:51;8.65;;;4.22;;
72408;SDS011;60402;48.082;11.628;2023-06-04T04:12:37;10.20;;;4.35;;
72408;SDS011;60402;48.082;11.628;2023-06-04T04:15:23;7.80;;;4.18;;
72408;SDS011;60402;48.082;11.628;2023-06-04T04:18:09;9.05;;;4.13;;
72408;SDS011;60402;48.082;11.628;2023-06-04T04:20:55;9.50;;;4.28;;
72408;SDS011;60402;48.082;11.628;2023-06-04T04:23:41;8.57;;;4.78;;
72408;SDS011;60402;48.082;11.628;2023-06-04T04:26:27;8.55;;;4.38;;
72408;SDS011;60402;48.082;11.628;2023-06-04T04:29:12;9.20;;;3.60;;
72408;SDS011;60402;48.082;11.628;2023-06-04T04:31:59;8.80;;;4.15;;
72408;SDS011;60402;48.082;11.628;2023-06-04T04:34:52;8.30;;;4.53;;
72408;SDS011;60402;48.082;11.628;2023-06-04T04:37:40;8.73;;;4.03;;
72408;SDS011;60402;48.082;11.628;2023-06-04T04:40:25;8.07;;;4.00;;
72408;SDS011;60402;48.082;11.628;2023-06-04T04:43:11;8.90;;;4.50;;
72408;SDS011;60402;48.082;11.628;2023-06-04T04:45:57;8.05;;;3.85;;
72408;SDS011;60402;48.082;11.628;2023-06-04T04:48:43;8.75;;;4.28;;
72408;SDS011;60402;48.082;11.628;2023-06-04T04:51:28;8.93;;;4.35;;
72408;SDS011;60402;48.082;11.628;2023-06-04T04:54:14;8.07;;;4.20;;
72408;SDS011;60402;48.082;11.628;2023-06-04T04:57:00;7.85;;;4.07;;
72408;SDS011;60402;48.082;11.628;2023-06-04T04:59:46;9.43;;;4.18;;
72408;SDS011;60402;48.082;11.628;2023-06-04T05:02:31;6.85;;;3.58;;
72408;SDS011;60402;48.082;11.628;2023-06-04T05:05:17;6.93;;;3.78;;
72408;SDS011;60402;48.082;11.628;2023-06-04T05:08:02;8.55;;;3.65;;
72408;SDS011;60402;48.082;11.628;2023-06-04T05:10:49;8.63;;;3.90;;
72408;SDS011;60402;48.082;11.628;2023-06-04T05:13:36;7.28;;;3.20;;
72408;SDS011;60402;48.082;11.628;2023-06-04T05:16:21;7.40;;;3.90;;
72408;SDS011;60402;48.082;11.628;2023-06-04T05:19:07;8.45;;;3.47;;
72408;SDS011;60402;48.082;11.628;2023-06-04T05:21:53;7.35;;;3.33;;
72408;SDS011;60402;48.082;11.628;2023-06-04T05:24:39;7.20;;;3.42;;
72408;SDS011;60402;48.082;11.628;2023-06-04T05:27:25;7.57;;;3.20;;
72408;SDS011;60402;48.082;11.628;2023-06-04T05:30:11;6.65;;;2.80;;
72408;SDS011;60402;48.082;11.628;2023-06-04T05:32:57;6.13;;;2.42;;
72408;SDS011;60402;48.082;11.628;2023-06-04T05:35:45;7.28;;;3.03;;
72408;SDS011;60402;48.082;11.628;2023-06-04T05:38:33;5.10;;;2.08;;
72408;SDS011;60402;48.082;11.628;2023-06-04T05:41:21;5.50;;;2.35;;
72408;SDS011;60402;48.082;11.628;2023-06-04T05:44:09;4.18;;;1.75;;
72408;SDS011;60402;48.082;11.628;2023-06-04T05:46:54;5.70;;;2.20;;
72408;SDS011;60402;48.082;11.628;2023-06-04T05:49:40;5.95;;;2.20;;
72408;SDS011;60402;48.082;11.628;2023-06-04T05:52:26;6.40;;;3.22;;
72408;SDS011;60402;48.082;11.628;2023-06-04T05:55:11;5.22;;;2.20;;
72408;SDS011;60402;48.082;11.628;2023-06-04T05:57:57;6.28;;;1.98;;
72408;SDS011;60402;48.082;11.628;2023-06-04T06:00:43;6.78;;;2.45;;
72408;SDS011;60402;48.082;11.628;2023-06-04T06:03:29;6.53;;;2.95;;
72408;SDS011;60402;48.082;11.628;2023-06-04T06:06:15;4.75;;;2.10;;
72408;SDS011;60402;48.082;11.628;2023-06-04T06:09:01;6.47;;;2.10;;
72408;SDS011;60402;48.082;11.628;2023-06-04T06:11:46;4.22;;;2.05;;
72408;SDS011;60402;48.082;11.628;2023-06-04T06:14:32;8.48;;;2.50;;
72408;SDS011;60402;48.082;11.628;2023-06-04T06:17:18;7.90;;;2.42;;
72408;SDS011;60402;48.082;11.628;2023-06-04T06:20:04;5.20;;;2.30;;
72408;SDS011;60402;48.082;11.628;2023-06-04T06:22:53;8.63;;;2.42;;
72408;SDS011;60402;48.082;11.628;2023-06-04T06:25:39;4.40;;;2.10;;
72408;SDS011;60402;48.082;11.628;2023-06-04T06:28:30;6.40;;;2.20;;
72408;SDS011;60402;48.082;11.628;2023-06-04T06:31:16;5.43;;;2.50;;
72408;SDS011;60402;48.082;11.628;2023-06-04T06:34:02;6.55;;;2.17;;
72408;SDS011;60402;48.082;11.628;2023-06-04T06:36:48;7.22;;;2.42;;
72408;SDS011;60402;48.082;11.628;2023-06-04T06:39:35;5.60;;;2.35;;
72408;SDS011;60402;48.082;11.628;2023-06-04T06:42:20;6.57;;;2.45;;
72408;SDS011;60402;48.082;11.628;2023-06-04T06:45:06;5.03;;;2.05;;
72408;SDS011;60402;48.082;11.628;2023-06-04T06:47:52;4.97;;;2.30;;
72408;SDS011;60402;48.082;11.628;2023-06-04T06:50:37;7.55;;;2.08;;
72408;SDS011;60402;48.082;11.628;2023-06-04T06:53:23;5.75;;;1.90;;
72408;SDS011;60402;48.082;11.628;2023-06-04T06:56:09;6.35;;;2.42;;
72408;SDS011;60402;48.082;11.628;2023-06-04T06:58:54;4.80;;;1.80;;
72408;SDS011;60402;48.082;11.628;2023-06-04T07:01:40;3.97;;;1.80;;
72408;SDS011;60402;48.082;11.628;2023-06-04T07:04:26;5.25;;;2.17;;
72408;SDS011;60402;48.082;11.628;2023-06-04T07:07:11;5.10;;;2.10;;
72408;SDS011;60402;48.082;11.628;2023-06-04T07:09:57;4.68;;;2.35;;
72408;SDS011;60402;48.082;11.628;2023-06-04T07:12:43;6.90;;;2.53;;
72408;SDS011;60402;48.082;11.628;2023-06-04T07:15:28;5.82;;;2.30;;
72408;SDS011;60402;48.082;11.628;2023-06-04T07:18:14;5.63;;;1.92;;
72408;SDS011;60402;48.082;11.628;2023-06-04T07:21:00;5.07;;;2.08;;
72408;SDS011;60402;48.082;11.628;2023-06-04T07:23:45;5.10;;;2.03;;
72408;SDS011;60402;48.082;11.628;2023-06-04T07:26:34;5.70;;;2.25;;
72408;SDS011;60402;48.082;11.628;2023-06-04T07:29:20;4.65;;;2.03;;
72408;SDS011;60402;48.082;11.628;2023-06-04T07:32:06;5.32;;;2.10;;
72408;SDS011;60402;48.082;11.628;2023-06-04T07:34:51;5.70;;;2.05;;
72408;SDS011;60402;48.082;11.628;2023-06-04T07:37:37;7.55;;;2.38;;
72408;SDS011;60402;48.082;11.628;2023-06-04T07:40:23;5.80;;;2.00;;
72408;SDS011;60402;48.082;11.628;2023-06-04T07:43:09;8.98;;;2.50;;
72408;SDS011;60402;48.082;11.628;2023-06-04T07:45:54;6.93;;;2.40;;
72408;SDS011;60402;48.082;11.628;2023-06-04T07:48:40;6.13;;;2.20;;
72408;SDS011;60402;48.082;11.628;2023-06-04T07:51:26;5.40;;;2.15;;
72408;SDS011;60402;48.082;11.628;2023-06-04T07:54:12;4.60;;;2.40;;
72408;SDS011;60402;48.082;11.628;2023-06-04T07:59:44;7.20;;;2.65;;
72408;SDS011;60402;48.082;11.628;2023-06-04T08:02:30;6.18;;;2.25;;
72408;SDS011;60402;48.082;11.628;2023-06-04T08:05:16;4.90;;;2.13;;
72408;SDS011;60402;48.082;11.628;2023-06-04T08:08:02;6.22;;;2.47;;
72408;SDS011;60402;48.082;11.628;2023-06-04T08:10:48;6.13;;;2.50;;
72408;SDS011;60402;48.082;11.628;2023-06-04T08:13:34;5.78;;;2.10;;
72408;SDS011;60402;48.082;11.628;2023-06-04T08:16:20;5.53;;;2.20;;
72408;SDS011;60402;48.082;11.628;2023-06-04T08:19:05;6.75;;;2.40;;
72408;SDS011;60402;48.082;11.628;2023-06-04T08:21:52;7.18;;;2.55;;
72408;SDS011;60402;48.082;11.628;2023-06-04T08:24:38;4.72;;;2.05;;
72408;SDS011;60402;48.082;11.628;2023-06-04T08:27:24;5.30;;;2.08;;
72408;SDS011;60402;48.082;11.628;2023-06-04T08:30:10;3.97;;;1.83;;
72408;SDS011;60402;48.082;11.628;2023-06-04T08:32:56;5.30;;;2.35;;
72408;SDS011;60402;48.082;11.628;2023-06-04T08:35:41;4.65;;;2.00;;
72408;SDS011;60402;48.082;11.628;2023-06-04T08:38:27;8.07;;;2.28;;
72408;SDS011;60402;48.082;11.628;2023-06-04T08:41:14;6.15;;;2.10;;
72408;SDS011;60402;48.082;11.628;2023-06-04T08:44:01;4.63;;;1.90;;
72408;SDS011;60402;48.082;11.628;2023-06-04T08:46:51;4.60;;;2.05;;
72408;SDS011;60402;48.082;11.628;2023-06-04T08:49:40;7.05;;;2.30;;
72408;SDS011;60402;48.082;11.628;2023-06-04T08:52:26;4.60;;;2.05;;
72408;SDS011;60402;48.082;11.628;2023-06-04T08:55:13;4.93;;;2.17;;
72408;SDS011;60402;48.082;11.628;2023-06-04T08:58:00;6.18;;;2.03;;
72408;SDS011;60402;48.082;11.628;2023-06-04T09:00:47;4.75;;;1.92;;
72408;SDS011;60402;48.082;11.628;2023-06-04T09:03:33;5.05;;;2.20;;
72408;SDS011;60402;48.082;11.628;2023-06-04T09:06:18;5.03;;;2.00;;
72408;SDS011;60402;48.082;11.628;2023-06-04T09:09:05;5.00;;;2.00;;
72408;SDS011;60402;48.082;11.628;2023-06-04T09:11:55;7.32;;;2.13;;
72408;SDS011;60402;48.082;11.628;2023-06-04T09:14:42;5.28;;;2.22;;
72408;SDS011;60402;48.082;11.628;2023-06-04T09:17:27;5.90;;;1.98;;
72408;SDS011;60402;48.082;11.628;2023-06-04T09:20:23;4.10;;;2.00;;
72408;SDS011;60402;48.082;11.628;2023-06-04T09:23:12;5.65;;;2.40;;
72408;SDS011;60402;48.082;11.628;2023-06-04T09:26:05;4.22;;;1.95;;
72408;SDS011;60402;48.082;11.628;2023-06-04T09:28:54;5.18;;;2.05;;
72408;SDS011;60402;48.082;11.628;2023-06-04T09:34:42;6.90;;;2.45;;
72408;SDS011;60402;48.082;11.628;2023-06-04T09:37:30;4.78;;;2.10;;
72408;SDS011;60402;48.082;11.628;2023-06-04T09:40:16;5.43;;;2.20;;
72408;SDS011;60402;48.082;11.628;2023-06-04T09:43:02;5.55;;;2.20;;
72408;SDS011;60402;48.082;11.628;2023-06-04T09:45:48;5.43;;;2.15;;
72408;SDS011;60402;48.082;11.628;2023-06-04T09:48:33;6.90;;;2.08;;
72408;SDS011;60402;48.082;11.628;2023-06-04T09:51:19;5.28;;;2.15;;
72408;SDS011;60402;48.082;11.628;2023-06-04T09:54:06;5.00;;;2.15;;
72408;SDS011;60402;48.082;11.628;2023-06-04T09:56:51;6.18;;;2.45;;
72408;SDS011;60402;48.082;11.628;2023-06-04T09:59:37;5.80;;;2.10;;
72408;SDS011;60402;48.082;11.628;2023-06-04T10:02:25;4.57;;;1.80;;
72408;SDS011;60402;48.082;11.628;2023-06-04T10:05:14;5.82;;;2.10;;
72408;SDS011;60402;48.082;11.628;2023-06-04T10:08:02;5.15;;;2.40;;
72408;SDS011;60402;48.082;11.628;2023-06-04T10:10:50;8.52;;;2.90;;
72408;SDS011;60402;48.082;11.628;2023-06-04T10:13:53;12.57;;;5.47;;
72408;SDS011;60402;48.082;11.628;2023-06-04T10:16:42;5.97;;;2.33;;
72408;SDS011;60402;48.082;11.628;2023-06-04T10:19:28;5.07;;;2.10;;
72408;SDS011;60402;48.082;11.628;2023-06-04T10:22:15;6.50;;;2.35;;
72408;SDS011;60402;48.082;11.628;2023-06-04T10:25:01;9.00;;;4.03;;
72408;SDS011;60402;48.082;11.628;2023-06-04T10:27:50;5.88;;;2.25;;
72408;SDS011;60402;48.082;11.628;2023-06-04T10:30:36;5.63;;;2.45;;
72408;SDS011;60402;48.082;11.628;2023-06-04T10:33:21;8.90;;;3.08;;
72408;SDS011;60402;48.082;11.628;2023-06-04T10:36:16;5.15;;;2.20;;
72408;SDS011;60402;48.082;11.628;2023-06-04T10:39:03;28.67;;;15.30;;
72408;SDS011;60402;48.082;11.628;2023-06-04T10:42:11;59.08;;;34.90;;
72408;SDS011;60402;48.082;11.628;2023-06-04T10:44:57;49.00;;;26.30;;
72408;SDS011;60402;48.082;11.628;2023-06-04T10:47:42;12.45;;;5.50;;
72408;SDS011;60402;48.082;11.628;2023-06-04T10:50:29;16.40;;;9.07;;
72408;SDS011;60402;48.082;11.628;2023-06-04T10:53:16;27.73;;;15.30;;
72408;SDS011;60402;48.082;11.628;2023-06-04T10:56:02;6.57;;;2.80;;
72408;SDS011;60402;48.082;11.628;2023-06-04T10:58:48;15.70;;;8.02;;
72408;SDS011;60402;48.082;11.628;2023-06-04T11:01:34;5.40;;;1.90;;
72408;SDS011;60402;48.082;11.628;2023-06-04T11:04:21;5.93;;;2.72;;
72408;SDS011;60402;48.082;11.628;2023-06-04T11:07:09;5.95;;;2.78;;
72408;SDS011;60402;48.082;11.628;2023-06-04T11:09:54;7.07;;;3.88;;
72408;SDS011;60402;48.082;11.628;2023-06-04T11:12:47;7.15;;;3.13;;
72408;SDS011;60402;48.082;11.628;2023-06-04T11:18:25;4.55;;;2.05;;
72408;SDS011;60402;48.082;11.628;2023-06-04T11:21:11;6.68;;;2.72;;
72408;SDS011;60402;48.082;11.628;2023-06-04T11:24:00;6.88;;;2.63;;
72408;SDS011;60402;48.082;11.628;2023-06-04T11:26:46;6.18;;;2.47;;
72408;SDS011;60402;48.082;11.628;2023-06-04T11:29:32;5.75;;;2.42;;
72408;SDS011;60402;48.082;11.628;2023-06-04T11:32:22;6.32;;;2.30;;
72408;SDS011;60402;48.082;11.628;2023-06-04T11:35:09;6.28;;;2.00;;
72408;SDS011;60402;48.082;11.628;2023-06-04T11:40:43;5.05;;;2.08;;
72408;SDS011;60402;48.082;11.628;2023-06-04T11:43:31;4.97;;;2.17;;
72408;SDS011;60402;48.082;11.628;2023-06-04T11:46:17;6.40;;;2.22;;
72408;SDS011;60402;48.082;11.628;2023-06-04T11:49:03;5.95;;;2.33;;
72408;SDS011;60402;48.082;11.628;2023-06-04T11:51:50;5.97;;;2.38;;
72408;SDS011;60402;48.082;11.628;2023-06-04T11:54:37;7.13;;;2.30;;
72408;SDS011;60402;48.082;11.628;2023-06-04T11:57:25;9.70;;;2.55;;
72408;SDS011;60402;48.082;11.628;2023-06-04T12:00:11;5.45;;;2.40;;
72408;SDS011;60402;48.082;11.628;2023-06-04T12:02:58;4.95;;;2.33;;
72408;SDS011;60402;48.082;11.628;2023-06-04T12:05:44;7.03;;;2.47;;
72408;SDS011;60402;48.082;11.628;2023-06-04T12:08:30;7.18;;;2.58;;
72408;SDS011;60402;48.082;11.628;2023-06-04T12:11:22;5.97;;;2.38;;
72408;SDS011;60402;48.082;11.628;2023-06-04T12:14:17;5.57;;;2.35;;
72408;SDS011;60402;48.082;11.628;2023-06-04T12:17:07;3.75;;;1.95;;
72408;SDS011;60402;48.082;11.628;2023-06-04T12:22:46;4.88;;;2.40;;
72408;SDS011;60402;48.082;11.628;2023-06-04T12:25:32;4.55;;;2.15;;
72408;SDS011;60402;48.082;11.628;2023-06-04T12:28:19;5.80;;;2.30;;
72408;SDS011;60402;48.082;11.628;2023-06-04T12:31:05;4.57;;;2.15;;
72408;SDS011;60402;48.082;11.628;2023-06-04T12:34:01;6.55;;;2.00;;
72408;SDS011;60402;48.082;11.628;2023-06-04T12:36:46;4.90;;;2.05;;
72408;SDS011;60402;48.082;11.628;2023-06-04T12:39:32;7.95;;;2.55;;
72408;SDS011;60402;48.082;11.628;2023-06-04T12:42:18;5.85;;;1.88;;
72408;SDS011;60402;48.082;11.628;2023-06-04T12:45:05;6.78;;;2.67;;
72408;SDS011;60402;48.082;11.628;2023-06-04T12:47:51;6.13;;;2.60;;
72408;SDS011;60402;48.082;11.628;2023-06-04T12:50:37;7.18;;;2.47;;
72408;SDS011;60402;48.082;11.628;2023-06-04T12:53:23;7.47;;;2.60;;
72408;SDS011;60402;48.082;11.628;2023-06-04T12:56:09;5.38;;;2.17;;
72408;SDS011;60402;48.082;11.628;2023-06-04T12:58:55;7.43;;;2.38;;
72408;SDS011;60402;48.082;11.628;2023-06-04T13:01:41;5.32;;;2.17;;
72408;SDS011;60402;48.082;11.628;2023-06-04T13:04:27;5.82;;;2.10;;
72408;SDS011;60402;48.082;11.628;2023-06-04T13:07:12;7.00;;;2.60;;
72408;SDS011;60402;48.082;11.628;2023-06-04T13:09:58;5.07;;;2.30;;
72408;SDS011;60402;48.082;11.628;2023-06-04T13:12:44;5.20;;;2.08;;
72408;SDS011;60402;48.082;11.628;2023-06-04T13:15:29;5.80;;;2.38;;
72408;SDS011;60402;48.082;11.628;2023-06-04T13:18:15;5.10;;;2.45;;
72408;SDS011;60402;48.082;11.628;2023-06-04T13:21:01;7.93;;;2.70;;
72408;SDS011;60402;48.082;11.628;2023-06-04T13:23:47;6.82;;;2.33;;
72408;SDS011;60402;48.082;11.628;2023-06-04T13:26:32;4.55;;;2.03;;
72408;SDS011;60402;48.082;11.628;2023-06-04T13:29:18;5.75;;;2.22;;
72408;SDS011;60402;48.082;11.628;2023-06-04T13:32:07;4.57;;;2.35;;
72408;SDS011;60402;48.082;11.628;2023-06-04T13:34:53;6.78;;;2.78;;
72408;SDS011;60402;48.082;11.628;2023-06-04T13:37:38;5.53;;;2.15;;
72408;SDS011;60402;48.082;11.628;2023-06-04T13:40:24;5.18;;;2.60;;
72408;SDS011;60402;48.082;11.628;2023-06-04T13:43:10;6.00;;;2.70;;
72408;SDS011;60402;48.082;11.628;2023-06-04T13:45:55;5.60;;;2.20;;
72408;SDS011;60402;48.082;11.628;2023-06-04T13:48:41;5.35;;;2.05;;
72408;SDS011;60402;48.082;11.628;2023-06-04T13:51:26;5.75;;;2.30;;
72408;SDS011;60402;48.082;11.628;2023-06-04T13:54:12;5.72;;;2.10;;
72408;SDS011;60402;48.082;11.628;2023-06-04T13:57:01;5.78;;;2.22;;
72408;SDS011;60402;48.082;11.628;2023-06-04T13:59:48;6.15;;;2.50;;
72408;SDS011;60402;48.082;11.628;2023-06-04T14:02:34;5.60;;;2.28;;
72408;SDS011;60402;48.082;11.628;2023-06-04T14:05:21;5.00;;;2.35;;
72408;SDS011;60402;48.082;11.628;2023-06-04T14:08:08;6.22;;;2.60;;
72408;SDS011;60402;48.082;11.628;2023-06-04T14:10:54;7.03;;;2.40;;
72408;SDS011;60402;48.082;11.628;2023-06-04T14:13:41;6.28;;;2.25;;
72408;SDS011;60402;48.082;11.628;2023-06-04T14:16:30;6.65;;;2.42;;
72408;SDS011;60402;48.082;11.628;2023-06-04T14:19:16;5.28;;;2.53;;
72408;SDS011;60402;48.082;11.628;2023-06-04T14:22:02;6.30;;;2.30;;
72408;SDS011;60402;48.082;11.628;2023-06-04T14:24:47;6.50;;;2.40;;
72408;SDS011;60402;48.082;11.628;2023-06-04T14:27:34;5.90;;;2.30;;
72408;SDS011;60402;48.082;11.628;2023-06-04T14:30:20;6.05;;;2.20;;
72408;SDS011;60402;48.082;11.628;2023-06-04T14:33:06;5.35;;;2.50;;
72408;SDS011;60402;48.082;11.628;2023-06-04T14:35:52;5.57;;;2.38;;
72408;SDS011;60402;48.082;11.628;2023-06-04T14:38:37;7.47;;;2.72;;
72408;SDS011;60402;48.082;11.628;2023-06-04T14:41:23;6.82;;;2.53;;
72408;SDS011;60402;48.082;11.628;2023-06-04T14:44:08;6.88;;;2.13;;
72408;SDS011;60402;48.082;11.628;2023-06-04T14:46:54;5.05;;;2.30;;
72408;SDS011;60402;48.082;11.628;2023-06-04T14:49:40;5.45;;;2.30;;
72408;SDS011;60402;48.082;11.628;2023-06-04T14:52:25;8.10;;;2.90;;
72408;SDS011;60402;48.082;11.628;2023-06-04T14:55:13;6.20;;;2.08;;
72408;SDS011;60402;48.082;11.628;2023-06-04T14:57:58;6.22;;;2.50;;
72408;SDS011;60402;48.082;11.628;2023-06-04T15:00:45;5.43;;;2.28;;
72408;SDS011;60402;48.082;11.628;2023-06-04T15:03:30;5.97;;;2.08;;
72408;SDS011;60402;48.082;11.628;2023-06-04T15:06:16;6.22;;;2.42;;
72408;SDS011;60402;48.082;11.628;2023-06-04T15:09:02;6.53;;;2.40;;
72408;SDS011;60402;48.082;11.628;2023-06-04T15:11:48;6.28;;;2.25;;
72408;SDS011;60402;48.082;11.628;2023-06-04T15:14:34;6.55;;;2.30;;
72408;SDS011;60402;48.082;11.628;2023-06-04T15:17:20;5.47;;;2.50;;
72408;SDS011;60402;48.082;11.628;2023-06-04T15:20:05;6.22;;;2.50;;
72408;SDS011;60402;48.082;11.628;2023-06-04T15:22:52;5.43;;;2.33;;
72408;SDS011;60402;48.082;11.628;2023-06-04T15:25:38;8.55;;;2.65;;
72408;SDS011;60402;48.082;11.628;2023-06-04T15:28:24;5.60;;;2.35;;
72408;SDS011;60402;48.082;11.628;2023-06-04T15:31:10;5.47;;;2.20;;
72408;SDS011;60402;48.082;11.628;2023-06-04T15:33:56;5.35;;;2.50;;
72408;SDS011;60402;48.082;11.628;2023-06-04T15:36:41;6.25;;;2.28;;
72408;SDS011;60402;48.082;11.628;2023-06-04T15:39:27;6.32;;;2.50;;
72408;SDS011;60402;48.082;11.628;2023-06-04T15:42:13;5.30;;;2.40;;
72408;SDS011;60402;48.082;11.628;2023-06-04T15:44:59;6.13;;;2.33;;
72408;SDS011;60402;48.082;11.628;2023-06-04T15:47:44;6.88;;;2.83;;
72408;SDS011;60402;48.082;11.628;2023-06-04T15:50:30;6.50;;;2.50;;
72408;SDS011;60402;48.082;11.628;2023-06-04T15:53:16;6.65;;;2.53;;
72408;SDS011;60402;48.082;11.628;2023-06-04T15:56:02;7.55;;;2.50;;
72408;SDS011;60402;48.082;11.628;2023-06-04T15:58:48;6.28;;;2.60;;
72408;SDS011;60402;48.082;11.628;2023-06-04T16:01:33;5.68;;;2.22;;
72408;SDS011;60402;48.082;11.628;2023-06-04T16:04:19;4.80;;;2.22;;
72408;SDS011;60402;48.082;11.628;2023-06-04T16:07:05;7.70;;;2.42;;
72408;SDS011;60402;48.082;11.628;2023-06-04T16:09:50;5.45;;;2.17;;
72408;SDS011;60402;48.082;11.628;2023-06-04T16:12:36;7.03;;;2.50;;
72408;SDS011;60402;48.082;11.628;2023-06-04T16:15:22;6.50;;;2.50;;
72408;SDS011;60402;48.082;11.628;2023-06-04T16:18:07;6.35;;;2.80;;
72408;SDS011;60402;48.082;11.628;2023-06-04T16:20:53;7.38;;;2.50;;
72408;SDS011;60402;48.082;11.628;2023-06-04T16:23:40;6.07;;;2.40;;
72408;SDS011;60402;48.082;11.628;2023-06-04T16:26:26;4.82;;;2.40;;
72408;SDS011;60402;48.082;11.628;2023-06-04T16:29:11;5.97;;;2.53;;
72408;SDS011;60402;48.082;11.628;2023-06-04T16:31:57;6.53;;;2.40;;
72408;SDS011;60402;48.082;11.628;2023-06-04T16:34:42;5.53;;;2.40;;
72408;SDS011;60402;48.082;11.628;2023-06-04T16:37:31;5.72;;;2.58;;
72408;SDS011;60402;48.082;11.628;2023-06-04T16:40:17;5.50;;;2.38;;
72408;SDS011;60402;48.082;11.628;2023-06-04T16:43:02;6.25;;;2.67;;
72408;SDS011;60402;48.082;11.628;2023-06-04T16:45:48;5.85;;;2.75;;
72408;SDS011;60402;48.082;11.628;2023-06-04T16:48:34;7.30;;;2.58;;
72408;SDS011;60402;48.082;11.628;2023-06-04T16:51:20;6.22;;;2.90;;